CMB847 Details

Departure: Bahrain International Airport (OBBI)
Arrival: Diego Garcia (FJDG) at N/A
Route: TULUB N685 RURAL B415 SIXIV N318 TOLDA P570 KITAL L516 NKW
Notes: USTRANSCOM CONTRACT FLIGHT


Current Weather Information
OBBI 231300Z 06007KT 9000 NSC 32/26 Q1009 NOSIG
FJDG 231255Z 10014KT 9999 FEW025 FEW035 BKN230 30/24 A2982 RMK SLP095 T02990239